Portada
METAR-TAF:

METAR-TAF

Aeroports :

Qaisumah, Aràbia Saudita

latitud: 28-19N, longitud: 046-07E, altitud: 358 m

Observació

L'informe es va fer fa 26 minuts, a les 11:00 UTC
Vent 6 kt del Sud-Est
Temperatura 28°C
Humitat 35%
Pressió 1017 hPa
Visibilitat 10 km o més
sense núvols per sota de 1500 mi sense presència de cumulonimbus.

METAR: OEPA 141100Z 13006KT CAVOK 28/11 Q1017 NOSIG

Hora: 14:26 (11:26 UTC)

Pronòstic

L'informe es va fer fa 12 hores i 26 minuts, a les 23:00 UTC
Pronòstic vàlid del 14 a les 00 UTC al 15 a les 06 UTC
Vent 3 kt amb direcció variable
Visibilitat 10 km o més
Escasses núvols a una alçada de 4000 ft
Evolucionant progressivament
l' 14 a les 06 UTC al 14 a les 08 UTC
Vent 15 kt del Sud
Temporalment
l' 14 a les 08 UTC al 14 a les 18 UTC
Escasses núvols a una alçada de 3500 ft, Cumulonimbus.
Núvols disperses a una alçada de 4000 ft

TAF: OEPA 132300Z 1400/1506 VRB03KT 9999 FEW040 BECMG 1406/1408 19015KT TEMPO 1408/1418 FEW035CB SCT040

Observacions i pronòstics meteorològics de més de 4000 aeroports (METAR i TAF).

Les estacions disponibles són els punts grocs i vermells al mapa.

Posi el ratolí al punt desitjat per veure el nom de l'estació.

Feu clic per veure les observacions i els pronòstics meteorològics.

Per canviar el mapa: feu clic els botons verds amb una creu de color negre per apropar; al botó verd amb un guió per allunyar la imatge; o en les fletxes verdes per a mapes adjacents.


METAR-TAF: